Flight Track Log - Related Links

Times and Time Zones

All times are in EDT time to prevent confusion due to time zone crossing. See the N779NC flight status page for this flight to view local times or setup timezone preferences in your user account.


Time Position Orientation Groundspeed Altitude Reporting Facility
EDT Latitude Longitude Course Direction KTS MPH feet Rate Location/Type
Sat 05:43:36 PM 33.6500 -84.4833 349° North 199 229 2,200  Level Atlanta TRACON
Sat 05:44:36 PM 33.6833 -84.5667 296° West 266 306 4,400 2,333 Climbing Atlanta TRACON
Sat 05:45:42 PM 33.7667 -84.6000 342° North 282 325 7,100 2,200 Climbing Atlanta TRACON
Sat 05:46:00 PM 34.0898 -84.5352 347° North  Level FlightAware Approximate
Sat 05:46:36 PM 33.8333 -84.6000 360° North 290 334 8,800  Level Atlanta TRACON
Sat 05:47:00 PM 34.2034 -84.5674 349° North  Level FlightAware Approximate
Sat 05:47:45 PM 33.9328 -84.6022 359° North 306 352 10,200  Level Atlanta Center
Sat 05:48:00 PM 34.3181 -84.5934 349° North  Level FlightAware Approximate
Sat 05:48:45 PM 34.0350 -84.6053 359° North 345 397 11,300  Level Atlanta Center
Sat 05:49:45 PM 34.1394 -84.6086 358° North 371 427 13,500 2,000 Climbing Atlanta Center
Sat 05:50:45 PM 34.2458 -84.6142 358° North 382 440 15,300 1,600 Climbing Atlanta Center
Sat 05:51:45 PM 34.3564 -84.6150 360° North 389 448 16,700 1,350 Climbing Atlanta Center
Sat 05:52:45 PM 34.4567 -84.6233 356° North 394 453 18,000 1,500 Climbing Atlanta Center
Sat 05:53:45 PM 34.5692 -84.6392 353° North 405 466 19,700 1,500 Climbing Atlanta Center
Sat 05:54:45 PM 34.6944 -84.6578 353° North 405 466 21,000 1,250 Climbing Atlanta Center
Sat 05:55:45 PM 34.8131 -84.6739 354° North 412 474 22,200 1,150 Climbing Atlanta Center
Sat 05:56:45 PM 34.9300 -84.7050 348° North 417 480 23,300 1,100 Climbing Atlanta Center
Sat 05:57:45 PM 35.0444 -84.7414 345° North 422 486 24,400 950 Climbing Atlanta Center
Sat 05:58:45 PM 35.1675 -84.7731 348° North 435 501 25,200 800 Climbing Atlanta Center
Sat 05:59:45 PM 35.2861 -84.8097 346° North 440 506 26,000 750 Climbing Atlanta Center
Sat 06:00:45 PM 35.4089 -84.8492 345° North 440 506 26,700 900 Climbing Atlanta Center
Sat 06:01:45 PM 35.5361 -84.8808 349° North 452 520 27,800 650 Climbing Atlanta Center
Sat 06:02:45 PM 35.6653 -84.9053 351° North 457 526 28,000 100 Climbing Atlanta Center
Sat 06:03:45 PM 35.7922 -84.9372 348° North 457 526 28,000  Level Atlanta Center
Sat 06:04:45 PM 35.9086 -84.9719 346° North 469 540 28,000  Level Atlanta Center
Sat 06:06:16 PM 36.1186 -85.0125 351° North 478 550 28,000  Level Indianapolis Center
Sat 06:07:17 PM 36.2506 -85.0286 354° North 475 547 28,000  Level Indianapolis Center
Sat 06:08:20 PM 36.3842 -85.0394 356° North 480 552 28,000  Level Indianapolis Center
Sat 06:09:20 PM 36.5161 -85.0603 353° North 478 550 28,000  Level Indianapolis Center
Sat 06:10:22 PM 36.6478 -85.0767 354° North 475 547 28,000  Level Indianapolis Center
Sat 06:11:23 PM 36.7806 -85.0858 357° North 477 549 28,000  Level Indianapolis Center
Sat 06:12:25 PM 36.9114 -85.1053 353° North 475 547 28,000 439 Level Indianapolis Center
Sat 06:13:26 PM 37.0589 -85.1344 351° North 477 549 28,900 934 Climbing Indianapolis Center
Sat 06:14:27 PM 37.1903 -85.1478 355° North 474 545 29,900 1,024 Climbing Indianapolis Center
Sat 06:15:29 PM 37.3233 -85.1561 357° North 477 549 31,000 976 Climbing Indianapolis Center
Sat 06:16:30 PM 37.4503 -85.1714 355° North 462 532 31,900 488 Climbing Indianapolis Center
Sat 06:17:32 PM 37.5647 -85.2233 340° North 444 511 32,000 49 Climbing Indianapolis Center
Sat 06:18:33 PM 37.6717 -85.2997 331° Northwest 439 505 32,000  Level Indianapolis Center
Sat 06:19:35 PM 37.7792 -85.4086 321° Northwest 426 490 32,000  Level Indianapolis Center
Sat 06:20:36 PM 37.8703 -85.4850 327° Northwest 427 491 32,000  Level Indianapolis Center
Sat 06:21:38 PM 37.9708 -85.5686 327° Northwest 432 497 32,000  Level Indianapolis Center
Sat 06:22:39 PM 38.0728 -85.6481 328° Northwest 429 494 32,000  Level Indianapolis Center
Sat 06:23:41 PM 38.1728 -85.7303 327° Northwest 428 493 32,000  Level Indianapolis Center
Sat 06:24:42 PM 38.3011 -85.7419 356° North 462 532 32,000  Level Indianapolis Center
Sat 06:25:44 PM 38.4542 -85.7628 354° North 460 529 32,000 -49 Level Indianapolis Center
Sat 06:26:45 PM 38.5789 -85.7894 351° North 456 525 31,900  Descending Indianapolis Center
Sat 06:27:47 PM 38.6906 -85.8056 354° North 460 529 32,000 49 Climbing Indianapolis Center
Sat 06:28:48 PM 38.8425 -85.8397 350° North 461 531 32,000  Level Indianapolis Center
Sat 06:29:50 PM 38.9722 -85.8544 355° North 477 549 32,000  Level Indianapolis Center
Sat 06:30:51 PM 39.0939 -85.7900 22° Northeast 480 552 32,000  Level Indianapolis Center
Sat 06:31:52 PM 39.2036 -85.7003 32° Northeast 475 547 32,000  Level Indianapolis Center
Sat 06:32:54 PM 39.2972 -85.5800 45° Northeast 478 550 32,000 -49 Level Indianapolis Center
Sat 06:33:55 PM 39.3939 -85.4625 43° Northeast 481 554 31,900 -492 Descending Indianapolis Center
Sat 06:34:56 PM 39.4856 -85.3386 46° Northeast 483 556 31,000 -439 Descending Indianapolis Center
Sat 06:35:58 PM 39.5106 -85.1725 79° East 472 543 31,000  Level Indianapolis Center
Sat 06:36:59 PM 39.5264 -84.9728 84° East 467 537 31,000 -49 Level Indianapolis Center
Sat 06:38:01 PM 39.5886 -84.8342 60° Northeast 468 539 30,900 -49 Descending Indianapolis Center
Sat 06:39:02 PM 39.7125 -84.8128 North 457 526 30,900 49 Level Indianapolis Center
Sat 06:40:03 PM 39.8158 -84.8986 327° Northwest 456 525 31,000 98 Climbing Indianapolis Center
Sat 06:41:05 PM 39.8950 -85.0175 311° West 443 510 31,100  Climbing Indianapolis Center
Sat 06:42:06 PM 40.0111 -85.0764 339° North 453 521 31,000 -49 Descending Indianapolis Center
Sat 06:43:08 PM 40.1375 -85.1056 350° North 462 532 31,000  Level Indianapolis Center
Sat 06:44:09 PM 40.2917 -85.1236 355° North 464 534 31,000  Level Indianapolis Center
Sat 06:45:10 PM 40.4219 -85.1386 355° North 471 542 31,000  Level Indianapolis Center
Sat 06:46:11 PM 40.5517 -85.1356 North 469 540 31,000  Level Indianapolis Center
Sat 06:47:13 PM 40.6811 -85.1433 357° North 468 539 31,000  Level Indianapolis Center
Sat 06:48:14 PM 40.8083 -85.1644 353° North 461 531 31,000  Level Indianapolis Center
Sat 06:49:16 PM 40.8978 -85.2706 318° Northwest 461 531 31,000 -98 Level Indianapolis Center
Sat 06:50:17 PM 40.9247 -85.4342 282° West 462 532 30,800 -541 Descending Indianapolis Center
Sat 06:51:18 PM 40.9697 -85.5961 290° West 472 543 29,900 -927 Descending Indianapolis Center
Sat 06:52:20 PM 41.0369 -85.7825 296° West 470 541 28,900 -1,463 Descending Indianapolis Center
Sat 06:53:21 PM 41.0939 -85.9331 297° West 462 532 26,900 -1,869 Descending Indianapolis Center
Sat 06:54:22 PM 41.1483 -86.0864 295° West 462 532 25,100 -1,672 Descending Indianapolis Center
Sat 06:55:23 PM 41.1925 -86.2072 296° West 459 528 23,500 -2,000 Descending Indianapolis Center
Sat 06:56:25 PM 41.2422 -86.3775 291° West 418 481 21,000 -2,146 Descending Indianapolis Center
Sat 06:57:26 PM 41.2731 -86.5256 286° West 418 481 19,100 -2,013 Descending Indianapolis Center
Sat 06:58:54 PM 41.3456 -86.7336 295° West 403 464 16,000 -1,920 Descending Chicago Center
Sat 06:59:56 PM 41.3925 -86.8639 296° West 395 455 14,300 -1,548 Descending Chicago Center
Sat 07:00:58 PM 41.4469 -86.9839 301° West 384 442 12,800 -1,512 Descending Chicago Center
Sat 07:01:59 PM 41.4953 -87.1067 298° West 379 436 11,200 -878 Descending Chicago Center
Sat 07:03:01 PM 41.5428 -87.2469 294° West 346 398 11,000 -194 Descending Chicago Center
Sat 07:04:03 PM 41.5986 -87.3503 306° West 347 399 10,800 -581 Descending Chicago Center
Sat 07:05:05 PM 41.6561 -87.4306 314° West 310 357 9,800 -1,355 Descending Chicago Center
Sat 07:06:07 PM 41.7133 -87.5031 317° Northwest 289 333 8,000 -1,317 Descending Chicago Center
Sat 07:07:08 PM 41.7664 -87.5764 314° West 280 322 7,100 -488 Descending Chicago Center
Sat 07:08:10 PM 41.8222 -87.6522 315° West 242 278 7,000 -48 Descending Chicago Center
Sat 07:09:12 PM 41.8206 -87.7347 268° West 234 269 7,000  Level Chicago Center
Sat 07:10:14 PM 41.8175 -87.8122 267° West 217 250 7,000  Level Chicago Center
Sat 07:11:16 PM 41.8114 -87.8922 264° West 215 247 7,000 -581 Level Chicago Center
Sat 07:12:18 PM 41.7789 -87.9550 235° Southwest 219 252 5,800 -1,355 Descending Chicago Center
Sat 07:13:20 PM 41.7869 -88.0333 278° West 205 236 4,200 -1,548 Descending Chicago Center

Login

Don't have an account? Register now (free) for customized features, flight alerts, and more!